General Aviation Weather

Text Reports

Enter one or more of the following location identifiers separated by a space:

Zip Code, Four-Character ICAO or Three-Character IATA airport codes.

METAR - Aviation Routine Weather Report
KBAX - Bad Axe, Michigan
Updated at 10:34 AM GMT on July 05, 2015 (6:34 AM EDT):
METAR KBAX 051034Z AUTO 00000KT 4SM BR CLR 13/12 A3008 RMK AO2 T01280120
TAF - Terminal Area Forecast
KBAX - Bad Axe, Michigan
Updated at 10:34 AM GMT on July 05, 2015 (6:34 AM EDT):
No TAF is currently available for this location.
Decoded:
No decoded TAF is available.
PIREP - Pilot Weather Report
KBAX - Bad Axe, Michigan
Updated at 10:34 AM GMT on July 05, 2015 (6:34 AM EDT):
No PIREP is currently available for this location.
AIRMET - Airmens Meteorological Information
KBAX - Bad Axe, Michigan
Updated at 10:34 AM GMT on July 05, 2015 (6:34 AM EDT):
No AIRMET is currently available for this location.
SIGMET - Significant Meteorological Information
KBAX - Bad Axe, Michigan
Updated at 10:34 AM GMT on July 05, 2015 (6:34 AM EDT):
No SIGMET is currently available for this location.
NOTAM - Notice to Airmen
KBAX - Bad Axe, Michigan
Updated at 10:34 AM GMT on July 05, 2015 (6:34 AM EDT):
No NOTAM is currently available for this location.
Forecast Area
KBAX - Bad Axe, Michigan
Updated at 10:34 AM GMT on July 05, 2015 (6:34 AM EDT):
No NOTAM is currently available for this location.
Aviation Weather Maps